sensor_id;sensor_type;location;lat;lon;timestamp;temperature;humidity
28438;DHT22;15667;52.376;9.708;2022-11-20T00:54:08;-1.30;99.90
28438;DHT22;15667;52.376;9.708;2022-11-20T00:56:33;-1.30;99.90
28438;DHT22;15667;52.376;9.708;2022-11-20T00:59:09;-2.30;99.90
28438;DHT22;15667;52.376;9.708;2022-11-20T01:01:38;-0.70;99.90
28438;DHT22;15667;52.376;9.708;2022-11-20T01:04:06;-1.40;99.90
28438;DHT22;15667;52.376;9.708;2022-11-20T01:06:39;-1.60;99.90
28438;DHT22;15667;52.376;9.708;2022-11-20T01:09:13;-1.60;99.90
28438;DHT22;15667;52.376;9.708;2022-11-20T01:14:44;-1.60;99.90
28438;DHT22;15667;52.376;9.708;2022-11-20T01:17:13;-0.80;99.90
28438;DHT22;15667;52.376;9.708;2022-11-20T01:19:41;-1.60;99.90
28438;DHT22;15667;52.376;9.708;2022-11-20T01:22:08;-1.90;99.90
28438;DHT22;15667;52.376;9.708;2022-11-20T01:33:42;-1.60;99.90
28438;DHT22;15667;52.376;9.708;2022-11-20T01:36:09;-1.60;99.90
28438;DHT22;15667;52.376;9.708;2022-11-20T01:38:35;-1.60;99.90
28438;DHT22;15667;52.376;9.708;2022-11-20T01:41:01;-1.70;99.90
28438;DHT22;15667;52.376;9.708;2022-11-20T01:43:27;-1.70;99.90
28438;DHT22;15667;52.376;9.708;2022-11-20T01:46:18;-1.70;99.90
28438;DHT22;15667;52.376;9.708;2022-11-20T01:49:03;-1.70;99.90
28438;DHT22;15667;52.376;9.708;2022-11-20T01:51:48;-1.80;99.90
28438;DHT22;15667;52.376;9.708;2022-11-20T01:54:22;-1.80;99.90
28438;DHT22;15667;52.376;9.708;2022-11-20T01:56:48;-1.80;99.90
28438;DHT22;15667;52.376;9.708;2022-11-20T01:59:17;-1.80;99.90
28438;DHT22;15667;52.376;9.708;2022-11-20T02:01:44;-1.70;99.90
28438;DHT22;15667;52.376;9.708;2022-11-20T02:04:10;-1.70;99.90
28438;DHT22;15667;52.376;9.708;2022-11-20T02:06:42;-1.60;99.90
28438;DHT22;15667;52.376;9.708;2022-11-20T02:09:08;-1.60;99.90
28438;DHT22;15667;52.376;9.708;2022-11-20T02:11:33;-1.60;99.90
28438;DHT22;15667;52.376;9.708;2022-11-20T02:13:59;-1.60;99.90
28438;DHT22;15667;52.376;9.708;2022-11-20T02:16:45;-1.50;99.90
28438;DHT22;15667;52.376;9.708;2022-11-20T02:19:29;-1.50;99.90
28438;DHT22;15667;52.376;9.708;2022-11-20T02:22:05;-1.40;99.90
28438;DHT22;15667;52.376;9.708;2022-11-20T02:24:33;-1.40;99.90
28438;DHT22;15667;52.376;9.708;2022-11-20T02:27:03;-1.30;99.90
28438;DHT22;15667;52.376;9.708;2022-11-20T02:30:02;-1.30;99.90
28438;DHT22;15667;52.376;9.708;2022-11-20T02:32:31;-1.30;99.90
28438;DHT22;15667;52.376;9.708;2022-11-20T02:34:57;-0.30;99.90
28438;DHT22;15667;52.376;9.708;2022-11-20T02:37:23;-0.60;99.90
28438;DHT22;15667;52.376;9.708;2022-11-20T02:39:51;-1.00;99.90
28438;DHT22;15667;52.376;9.708;2022-11-20T02:42:17;-1.00;99.90
28438;DHT22;15667;52.376;9.708;2022-11-20T02:44:43;-1.00;99.90
28438;DHT22;15667;52.376;9.708;2022-11-20T02:47:09;-1.10;99.90
28438;DHT22;15667;52.376;9.708;2022-11-20T02:49:35;-1.30;99.90
28438;DHT22;15667;52.376;9.708;2022-11-20T02:52:14;-1.40;99.90
28438;DHT22;15667;52.376;9.708;2022-11-20T02:54:40;-1.40;99.90
28438;DHT22;15667;52.376;9.708;2022-11-20T02:57:06;-1.30;99.90
28438;DHT22;15667;52.376;9.708;2022-11-20T02:59:32;-1.30;99.90
28438;DHT22;15667;52.376;9.708;2022-11-20T03:01:58;-1.40;99.90
28438;DHT22;15667;52.376;9.708;2022-11-20T03:04:23;-1.40;99.90
28438;DHT22;15667;52.376;9.708;2022-11-20T03:06:49;-1.40;99.90
28438;DHT22;15667;52.376;9.708;2022-11-20T03:09:15;-1.50;99.90
28438;DHT22;15667;52.376;9.708;2022-11-20T03:11:41;-1.50;99.90
28438;DHT22;15667;52.376;9.708;2022-11-20T03:14:07;-1.50;99.90
28438;DHT22;15667;52.376;9.708;2022-11-20T03:16:33;-1.50;99.90
28438;DHT22;15667;52.376;9.708;2022-11-20T03:18:59;-1.50;99.90
28438;DHT22;15667;52.376;9.708;2022-11-20T03:21:25;-1.40;99.90
28438;DHT22;15667;52.376;9.708;2022-11-20T03:23:50;-1.50;99.90
28438;DHT22;15667;52.376;9.708;2022-11-20T03:26:19;-1.40;99.90
28438;DHT22;15667;52.376;9.708;2022-11-20T03:28:50;-1.40;99.90
28438;DHT22;15667;52.376;9.708;2022-11-20T03:31:19;-1.30;99.90
28438;DHT22;15667;52.376;9.708;2022-11-20T03:33:45;-1.40;99.90
28438;DHT22;15667;52.376;9.708;2022-11-20T03:36:12;-1.40;99.90
28438;DHT22;15667;52.376;9.708;2022-11-20T03:38:38;-1.40;99.90
28438;DHT22;15667;52.376;9.708;2022-11-20T03:41:10;-1.30;99.90
28438;DHT22;15667;52.376;9.708;2022-11-20T03:43:36;-1.30;99.90
28438;DHT22;15667;52.376;9.708;2022-11-20T03:46:02;-1.40;99.90
28438;DHT22;15667;52.376;9.708;2022-11-20T03:48:29;-1.40;99.90
28438;DHT22;15667;52.376;9.708;2022-11-20T03:51:24;-1.40;99.90
28438;DHT22;15667;52.376;9.708;2022-11-20T03:53:51;-1.30;99.90
28438;DHT22;15667;52.376;9.708;2022-11-20T03:56:20;-1.30;99.90
28438;DHT22;15667;52.376;9.708;2022-11-20T03:58:45;-1.20;99.90
28438;DHT22;15667;52.376;9.708;2022-11-20T04:01:17;-1.20;99.90
28438;DHT22;15667;52.376;9.708;2022-11-20T04:03:44;-1.20;99.90
28438;DHT22;15667;52.376;9.708;2022-11-20T04:06:25;-1.10;99.90
28438;DHT22;15667;52.376;9.708;2022-11-20T04:08:51;-0.90;99.90
28438;DHT22;15667;52.376;9.708;2022-11-20T04:11:21;-1.00;99.90
28438;DHT22;15667;52.376;9.708;2022-11-20T04:17:10;-1.00;99.90
28438;DHT22;15667;52.376;9.708;2022-11-20T04:19:35;-1.00;99.90
28438;DHT22;15667;52.376;9.708;2022-11-20T04:22:01;-1.00;99.90
28438;DHT22;15667;52.376;9.708;2022-11-20T04:24:26;-1.00;99.90
28438;DHT22;15667;52.376;9.708;2022-11-20T04:26:52;-1.00;99.90
28438;DHT22;15667;52.376;9.708;2022-11-20T04:29:17;-1.10;99.90
28438;DHT22;15667;52.376;9.708;2022-11-20T04:31:43;-1.00;99.90
28438;DHT22;15667;52.376;9.708;2022-11-20T04:34:11;-0.90;99.90
28438;DHT22;15667;52.376;9.708;2022-11-20T04:36:38;-1.00;99.90
28438;DHT22;15667;52.376;9.708;2022-11-20T04:39:05;-0.90;99.90
28438;DHT22;15667;52.376;9.708;2022-11-20T04:41:34;-1.00;99.90
28438;DHT22;15667;52.376;9.708;2022-11-20T04:44:00;-1.00;99.90
28438;DHT22;15667;52.376;9.708;2022-11-20T04:46:31;-1.00;99.90
28438;DHT22;15667;52.376;9.708;2022-11-20T04:48:58;-1.30;99.90
28438;DHT22;15667;52.376;9.708;2022-11-20T04:51:24;-1.00;99.90
28438;DHT22;15667;52.376;9.708;2022-11-20T04:53:50;-0.90;99.90
28438;DHT22;15667;52.376;9.708;2022-11-20T04:56:15;-0.80;99.90
28438;DHT22;15667;52.376;9.708;2022-11-20T04:58:41;-1.00;99.90
28438;DHT22;15667;52.376;9.708;2022-11-20T05:01:10;-1.00;99.90
28438;DHT22;15667;52.376;9.708;2022-11-20T05:03:37;-1.00;99.90
28438;DHT22;15667;52.376;9.708;2022-11-20T05:06:05;-0.90;99.90
28438;DHT22;15667;52.376;9.708;2022-11-20T05:08:31;-0.90;99.90
28438;DHT22;15667;52.376;9.708;2022-11-20T05:11:08;-0.90;99.90
28438;DHT22;15667;52.376;9.708;2022-11-20T05:13:34;-0.90;99.90
28438;DHT22;15667;52.376;9.708;2022-11-20T05:16:04;-0.90;99.90
28438;DHT22;15667;52.376;9.708;2022-11-20T05:18:30;-0.80;99.90
28438;DHT22;15667;52.376;9.708;2022-11-20T05:20:57;-0.80;99.90
28438;DHT22;15667;52.376;9.708;2022-11-20T05:23:23;-0.80;99.90
28438;DHT22;15667;52.376;9.708;2022-11-20T05:25:52;-0.90;99.90
28438;DHT22;15667;52.376;9.708;2022-11-20T05:28:18;-0.90;99.90
28438;DHT22;15667;52.376;9.708;2022-11-20T05:30:43;-0.90;99.90
28438;DHT22;15667;52.376;9.708;2022-11-20T05:33:09;-1.00;99.90
28438;DHT22;15667;52.376;9.708;2022-11-20T05:35:34;-1.00;99.90
28438;DHT22;15667;52.376;9.708;2022-11-20T05:38:00;-0.90;99.90
28438;DHT22;15667;52.376;9.708;2022-11-20T05:40:26;-0.90;99.90
28438;DHT22;15667;52.376;9.708;2022-11-20T05:42:51;-0.80;99.90
28438;DHT22;15667;52.376;9.708;2022-11-20T05:45:17;-0.90;99.90
28438;DHT22;15667;52.376;9.708;2022-11-20T05:47:42;-0.80;99.90
28438;DHT22;15667;52.376;9.708;2022-11-20T05:50:08;-0.80;99.90
28438;DHT22;15667;52.376;9.708;2022-11-20T05:52:38;-0.90;99.90
28438;DHT22;15667;52.376;9.708;2022-11-20T05:55:04;-0.90;99.90
28438;DHT22;15667;52.376;9.708;2022-11-20T05:57:30;-0.80;99.90
28438;DHT22;15667;52.376;9.708;2022-11-20T05:59:56;-0.80;99.90
28438;DHT22;15667;52.376;9.708;2022-11-20T06:02:22;-0.90;99.90
28438;DHT22;15667;52.376;9.708;2022-11-20T06:04:47;-0.80;99.90
28438;DHT22;15667;52.376;9.708;2022-11-20T06:07:13;-0.80;99.90
28438;DHT22;15667;52.376;9.708;2022-11-20T06:09:39;-0.80;99.90
28438;DHT22;15667;52.376;9.708;2022-11-20T06:12:05;-0.80;99.90
28438;DHT22;15667;52.376;9.708;2022-11-20T06:14:31;-0.90;99.90
28438;DHT22;15667;52.376;9.708;2022-11-20T06:16:56;-0.90;99.90
28438;DHT22;15667;52.376;9.708;2022-11-20T06:19:22;-0.90;99.90
28438;DHT22;15667;52.376;9.708;2022-11-20T06:21:48;-0.90;99.90
28438;DHT22;15667;52.376;9.708;2022-11-20T06:24:15;-0.90;99.90
28438;DHT22;15667;52.376;9.708;2022-11-20T06:26:40;-0.30;99.90
28438;DHT22;15667;52.376;9.708;2022-11-20T06:29:06;-0.60;99.90
28438;DHT22;15667;52.376;9.708;2022-11-20T06:31:32;-0.90;99.90
28438;DHT22;15667;52.376;9.708;2022-11-20T06:34:06;-0.80;99.90
28438;DHT22;15667;52.376;9.708;2022-11-20T06:36:32;-0.70;99.90
28438;DHT22;15667;52.376;9.708;2022-11-20T06:38:59;-0.70;99.90
28438;DHT22;15667;52.376;9.708;2022-11-20T06:41:25;-0.80;99.90
28438;DHT22;15667;52.376;9.708;2022-11-20T06:43:51;-0.70;99.90
28438;DHT22;15667;52.376;9.708;2022-11-20T06:46:18;-0.80;99.90
28438;DHT22;15667;52.376;9.708;2022-11-20T06:48:44;-0.80;99.90
28438;DHT22;15667;52.376;9.708;2022-11-20T06:51:10;-0.80;99.90
28438;DHT22;15667;52.376;9.708;2022-11-20T06:53:36;-0.90;99.90
28438;DHT22;15667;52.376;9.708;2022-11-20T06:56:02;-0.90;99.90
28438;DHT22;15667;52.376;9.708;2022-11-20T06:58:29;-0.90;99.90
28438;DHT22;15667;52.376;9.708;2022-11-20T07:01:04;-0.90;99.90
28438;DHT22;15667;52.376;9.708;2022-11-20T07:03:30;-0.90;99.90
28438;DHT22;15667;52.376;9.708;2022-11-20T07:05:57;-0.80;99.90
28438;DHT22;15667;52.376;9.708;2022-11-20T07:08:23;-0.90;99.90
28438;DHT22;15667;52.376;9.708;2022-11-20T07:10:49;-0.90;99.90
28438;DHT22;15667;52.376;9.708;2022-11-20T07:13:15;-0.80;99.90
28438;DHT22;15667;52.376;9.708;2022-11-20T07:15:41;-0.60;99.90
28438;DHT22;15667;52.376;9.708;2022-11-20T07:18:06;0.40;99.90
28438;DHT22;15667;52.376;9.708;2022-11-20T07:20:32;-1.90;99.90
28438;DHT22;15667;52.376;9.708;2022-11-20T07:22:58;-0.90;99.90
28438;DHT22;15667;52.376;9.708;2022-11-20T07:25:27;-0.10;99.90
28438;DHT22;15667;52.376;9.708;2022-11-20T07:27:59;-0.90;99.90
28438;DHT22;15667;52.376;9.708;2022-11-20T07:30:27;-0.90;99.90
28438;DHT22;15667;52.376;9.708;2022-11-20T07:32:53;-0.50;99.90
28438;DHT22;15667;52.376;9.708;2022-11-20T07:35:23;-0.60;99.90
28438;DHT22;15667;52.376;9.708;2022-11-20T07:37:52;-1.10;99.90
28438;DHT22;15667;52.376;9.708;2022-11-20T07:40:17;-1.00;99.90
28438;DHT22;15667;52.376;9.708;2022-11-20T07:42:55;-0.70;99.90
28438;DHT22;15667;52.376;9.708;2022-11-20T07:45:22;0.20;99.90
28438;DHT22;15667;52.376;9.708;2022-11-20T07:47:49;0.00;99.90
28438;DHT22;15667;52.376;9.708;2022-11-20T07:50:15;-0.20;99.90
28438;DHT22;15667;52.376;9.708;2022-11-20T07:52:41;-0.60;99.90
28438;DHT22;15667;52.376;9.708;2022-11-20T07:55:08;-0.10;99.90
28438;DHT22;15667;52.376;9.708;2022-11-20T07:57:33;-0.70;99.90
28438;DHT22;15667;52.376;9.708;2022-11-20T08:00:04;-0.60;99.90
28438;DHT22;15667;52.376;9.708;2022-11-20T08:02:30;-0.60;99.90
28438;DHT22;15667;52.376;9.708;2022-11-20T08:04:59;-0.90;99.90
28438;DHT22;15667;52.376;9.708;2022-11-20T08:07:27;-0.30;99.90
28438;DHT22;15667;52.376;9.708;2022-11-20T08:09:53;-0.50;99.90
28438;DHT22;15667;52.376;9.708;2022-11-20T08:12:20;0.20;99.90
28438;DHT22;15667;52.376;9.708;2022-11-20T08:15:05;-0.10;99.90
28438;DHT22;15667;52.376;9.708;2022-11-20T08:17:32;-0.60;99.90
28438;DHT22;15667;52.376;9.708;2022-11-20T08:19:57;-0.50;99.90
28438;DHT22;15667;52.376;9.708;2022-11-20T08:22:23;-0.60;99.90
28438;DHT22;15667;52.376;9.708;2022-11-20T08:24:50;-0.40;99.90
28438;DHT22;15667;52.376;9.708;2022-11-20T08:27:15;-0.40;99.90
28438;DHT22;15667;52.376;9.708;2022-11-20T08:29:41;-0.90;99.90
28438;DHT22;15667;52.376;9.708;2022-11-20T08:32:06;-0.40;99.90
28438;DHT22;15667;52.376;9.708;2022-11-20T08:34:32;-0.50;99.90
28438;DHT22;15667;52.376;9.708;2022-11-20T08:36:57;-0.40;99.90
28438;DHT22;15667;52.376;9.708;2022-11-20T08:39:24;-0.40;99.90
28438;DHT22;15667;52.376;9.708;2022-11-20T08:41:49;-0.40;99.90
28438;DHT22;15667;52.376;9.708;2022-11-20T08:44:15;-0.40;99.90
28438;DHT22;15667;52.376;9.708;2022-11-20T08:46:41;-0.40;99.90
28438;DHT22;15667;52.376;9.708;2022-11-20T08:49:11;-0.50;99.90
28438;DHT22;15667;52.376;9.708;2022-11-20T08:51:38;-0.50;99.90
28438;DHT22;15667;52.376;9.708;2022-11-20T08:54:22;-0.30;99.90
28438;DHT22;15667;52.376;9.708;2022-11-20T09:04:57;0.00;99.90
28438;DHT22;15667;52.376;9.708;2022-11-20T09:07:26;0.10;99.90
28438;DHT22;15667;52.376;9.708;2022-11-20T09:13:30;0.10;99.90
28438;DHT22;15667;52.376;9.708;2022-11-20T09:16:13;0.10;99.90
28438;DHT22;15667;52.376;9.708;2022-11-20T09:27:46;0.30;99.90
28438;DHT22;15667;52.376;9.708;2022-11-20T09:30:15;0.30;99.90
28438;DHT22;15667;52.376;9.708;2022-11-20T09:32:44;0.20;99.90
28438;DHT22;15667;52.376;9.708;2022-11-20T09:35:10;0.30;99.90
28438;DHT22;15667;52.376;9.708;2022-11-20T09:37:37;0.20;99.90
28438;DHT22;15667;52.376;9.708;2022-11-20T09:40:03;0.90;99.90
28438;DHT22;15667;52.376;9.708;2022-11-20T09:42:34;0.90;99.90
28438;DHT22;15667;52.376;9.708;2022-11-20T09:50:57;2.90;99.90
28438;DHT22;15667;52.376;9.708;2022-11-20T09:56:17;2.00;99.90
28438;DHT22;15667;52.376;9.708;2022-11-20T09:58:50;2.00;99.90
28438;DHT22;15667;52.376;9.708;2022-11-20T10:01:30;1.80;99.90
28438;DHT22;15667;52.376;9.708;2022-11-20T10:04:04;2.20;99.90
28438;DHT22;15667;52.376;9.708;2022-11-20T10:06:34;1.70;99.90
28438;DHT22;15667;52.376;9.708;2022-11-20T10:17:12;2.10;99.90
28438;DHT22;15667;52.376;9.708;2022-11-20T10:20:02;2.20;99.90
28438;DHT22;15667;52.376;9.708;2022-11-20T10:25:16;2.20;99.90
28438;DHT22;15667;52.376;9.708;2022-11-20T10:30:45;2.10;99.90
28438;DHT22;15667;52.376;9.708;2022-11-20T10:33:21;2.10;99.90
28438;DHT22;15667;52.376;9.708;2022-11-20T10:35:52;1.90;99.90
28438;DHT22;15667;52.376;9.708;2022-11-20T10:41:16;1.90;99.90
28438;DHT22;15667;52.376;9.708;2022-11-20T10:44:00;1.90;99.90
28438;DHT22;15667;52.376;9.708;2022-11-20T10:46:35;2.00;99.90
28438;DHT22;15667;52.376;9.708;2022-11-20T10:49:04;2.10;99.90
28438;DHT22;15667;52.376;9.708;2022-11-20T10:51:32;2.10;99.90
28438;DHT22;15667;52.376;9.708;2022-11-20T11:00:05;2.10;99.90
28438;DHT22;15667;52.376;9.708;2022-11-20T11:05:37;2.10;99.90
28438;DHT22;15667;52.376;9.708;2022-11-20T11:08:05;2.30;99.90
28438;DHT22;15667;52.376;9.708;2022-11-20T11:10:38;2.20;99.90
28438;DHT22;15667;52.376;9.708;2022-11-20T11:13:06;2.20;99.90
28438;DHT22;15667;52.376;9.708;2022-11-20T11:15:40;2.10;99.90
28438;DHT22;15667;52.376;9.708;2022-11-20T11:18:09;2.10;99.90
28438;DHT22;15667;52.376;9.708;2022-11-20T11:20:35;2.10;99.90
28438;DHT22;15667;52.376;9.708;2022-11-20T11:23:02;2.10;99.90
28438;DHT22;15667;52.376;9.708;2022-11-20T11:25:30;2.10;99.90
28438;DHT22;15667;52.376;9.708;2022-11-20T11:28:00;2.10;99.90
28438;DHT22;15667;52.376;9.708;2022-11-20T11:30:26;2.10;99.90
28438;DHT22;15667;52.376;9.708;2022-11-20T11:33:18;2.70;99.90
28438;DHT22;15667;52.376;9.708;2022-11-20T11:35:46;2.20;99.90
28438;DHT22;15667;52.376;9.708;2022-11-20T11:38:16;2.10;99.90
28438;DHT22;15667;52.376;9.708;2022-11-20T11:40:42;2.10;99.90
28438;DHT22;15667;52.376;9.708;2022-11-20T11:43:16;3.10;99.90
28438;DHT22;15667;52.376;9.708;2022-11-20T11:46:01;2.20;99.90
28438;DHT22;15667;52.376;9.708;2022-11-20T11:48:27;2.70;99.90
28438;DHT22;15667;52.376;9.708;2022-11-20T11:50:52;2.20;99.90
28438;DHT22;15667;52.376;9.708;2022-11-20T11:53:22;2.80;99.90
28438;DHT22;15667;52.376;9.708;2022-11-20T11:55:59;2.30;99.90
28438;DHT22;15667;52.376;9.708;2022-11-20T12:01:03;2.10;99.90
28438;DHT22;15667;52.376;9.708;2022-11-20T12:03:34;3.00;99.90
28438;DHT22;15667;52.376;9.708;2022-11-20T12:06:13;2.20;99.90
28438;DHT22;15667;52.376;9.708;2022-11-20T12:08:44;2.40;99.90
28438;DHT22;15667;52.376;9.708;2022-11-20T12:11:16;2.20;99.90
28438;DHT22;15667;52.376;9.708;2022-11-20T12:13:48;2.20;99.90
28438;DHT22;15667;52.376;9.708;2022-11-20T12:16:18;2.10;99.90
28438;DHT22;15667;52.376;9.708;2022-11-20T12:18:44;2.10;99.90
28438;DHT22;15667;52.376;9.708;2022-11-20T12:21:25;2.10;99.90
28438;DHT22;15667;52.376;9.708;2022-11-20T12:24:00;2.20;99.90
28438;DHT22;15667;52.376;9.708;2022-11-20T12:34:32;2.10;99.90
28438;DHT22;15667;52.376;9.708;2022-11-20T12:37:06;2.00;99.90
28438;DHT22;15667;52.376;9.708;2022-11-20T12:39:40;2.10;99.90
28438;DHT22;15667;52.376;9.708;2022-11-20T12:45:53;2.30;99.90
28438;DHT22;15667;52.376;9.708;2022-11-20T12:53:36;2.70;99.90
28438;DHT22;15667;52.376;9.708;2022-11-20T12:56:21;2.80;99.90
28438;DHT22;15667;52.376;9.708;2022-11-20T13:01:30;2.80;99.90
28438;DHT22;15667;52.376;9.708;2022-11-20T13:04:13;2.70;99.90
28438;DHT22;15667;52.376;9.708;2022-11-20T13:06:42;2.60;99.90
28438;DHT22;15667;52.376;9.708;2022-11-20T13:09:10;2.60;99.90
28438;DHT22;15667;52.376;9.708;2022-11-20T13:16:54;2.50;99.90
28438;DHT22;15667;52.376;9.708;2022-11-20T13:19:21;2.40;99.90
28438;DHT22;15667;52.376;9.708;2022-11-20T13:21:48;2.50;99.90
28438;DHT22;15667;52.376;9.708;2022-11-20T13:26:45;2.70;99.90
28438;DHT22;15667;52.376;9.708;2022-11-20T13:29:11;2.50;99.90
28438;DHT22;15667;52.376;9.708;2022-11-20T13:31:39;2.50;99.90
28438;DHT22;15667;52.376;9.708;2022-11-20T13:34:07;2.50;99.90
28438;DHT22;15667;52.376;9.708;2022-11-20T13:36:37;2.50;99.90
28438;DHT22;15667;52.376;9.708;2022-11-20T13:39:23;3.40;99.90
28438;DHT22;15667;52.376;9.708;2022-11-20T13:41:53;3.20;99.90
28438;DHT22;15667;52.376;9.708;2022-11-20T13:44:38;2.30;99.90
28438;DHT22;15667;52.376;9.708;2022-11-20T13:47:04;2.30;99.90
28438;DHT22;15667;52.376;9.708;2022-11-20T13:49:42;2.50;99.90
28438;DHT22;15667;52.376;9.708;2022-11-20T13:54:51;2.80;99.90
28438;DHT22;15667;52.376;9.708;2022-11-20T14:02:50;2.60;99.90
28438;DHT22;15667;52.376;9.708;2022-11-20T14:05:24;2.60;99.90
28438;DHT22;15667;52.376;9.708;2022-11-20T14:07:50;3.70;99.90
28438;DHT22;15667;52.376;9.708;2022-11-20T14:10:34;3.40;99.90
28438;DHT22;15667;52.376;9.708;2022-11-20T14:13:09;2.40;99.90
28438;DHT22;15667;52.376;9.708;2022-11-20T14:15:35;2.40;99.90
28438;DHT22;15667;52.376;9.708;2022-11-20T14:18:11;2.40;99.90
28438;DHT22;15667;52.376;9.708;2022-11-20T14:20:37;2.30;99.90
28438;DHT22;15667;52.376;9.708;2022-11-20T14:23:03;2.40;99.90
28438;DHT22;15667;52.376;9.708;2022-11-20T14:25:30;2.40;99.90
28438;DHT22;15667;52.376;9.708;2022-11-20T14:30:25;2.20;99.90
28438;DHT22;15667;52.376;9.708;2022-11-20T14:32:53;2.20;99.90
28438;DHT22;15667;52.376;9.708;2022-11-20T14:37:54;2.20;99.90
28438;DHT22;15667;52.376;9.708;2022-11-20T14:40:40;2.20;99.90
28438;DHT22;15667;52.376;9.708;2022-11-20T14:45:42;2.00;99.90
28438;DHT22;15667;52.376;9.708;2022-11-20T14:48:08;2.00;99.90
28438;DHT22;15667;52.376;9.708;2022-11-20T14:50:34;2.00;99.90
28438;DHT22;15667;52.376;9.708;2022-11-20T14:53:03;1.90;99.90
28438;DHT22;15667;52.376;9.708;2022-11-20T14:55:33;2.20;99.90
28438;DHT22;15667;52.376;9.708;2022-11-20T14:58:03;2.70;99.90
28438;DHT22;15667;52.376;9.708;2022-11-20T15:00:30;2.10;99.90
28438;DHT22;15667;52.376;9.708;2022-11-20T15:02:56;2.10;99.90
28438;DHT22;15667;52.376;9.708;2022-11-20T15:05:25;2.10;99.90
28438;DHT22;15667;52.376;9.708;2022-11-20T15:08:03;2.10;99.90
28438;DHT22;15667;52.376;9.708;2022-11-20T15:10:29;2.20;99.90
28438;DHT22;15667;52.376;9.708;2022-11-20T15:12:56;2.00;99.90
28438;DHT22;15667;52.376;9.708;2022-11-20T15:17:53;2.00;99.90
28438;DHT22;15667;52.376;9.708;2022-11-20T15:20:23;2.00;99.90
28438;DHT22;15667;52.376;9.708;2022-11-20T15:22:50;2.00;99.90
28438;DHT22;15667;52.376;9.708;2022-11-20T15:25:17;1.90;99.90
28438;DHT22;15667;52.376;9.708;2022-11-20T15:27:43;2.10;99.90
28438;DHT22;15667;52.376;9.708;2022-11-20T15:30:13;2.00;99.90
28438;DHT22;15667;52.376;9.708;2022-11-20T15:32:40;1.90;99.90
28438;DHT22;15667;52.376;9.708;2022-11-20T15:35:06;1.80;99.90
28438;DHT22;15667;52.376;9.708;2022-11-20T15:37:32;1.90;99.90
28438;DHT22;15667;52.376;9.708;2022-11-20T15:39:57;1.90;99.90
28438;DHT22;15667;52.376;9.708;2022-11-20T15:42:23;1.90;99.90
28438;DHT22;15667;52.376;9.708;2022-11-20T15:44:48;2.30;99.90
28438;DHT22;15667;52.376;9.708;2022-11-20T15:47:14;3.00;99.90
28438;DHT22;15667;52.376;9.708;2022-11-20T15:49:39;1.80;99.90
28438;DHT22;15667;52.376;9.708;2022-11-20T15:52:08;1.80;99.90
28438;DHT22;15667;52.376;9.708;2022-11-20T15:54:41;1.70;99.90
28438;DHT22;15667;52.376;9.708;2022-11-20T15:57:07;1.50;99.90
28438;DHT22;15667;52.376;9.708;2022-11-20T15:59:32;1.90;99.90
28438;DHT22;15667;52.376;9.708;2022-11-20T16:02:19;2.60;99.90
28438;DHT22;15667;52.376;9.708;2022-11-20T16:04:44;1.40;99.90
28438;DHT22;15667;52.376;9.708;2022-11-20T16:07:12;2.70;99.90
28438;DHT22;15667;52.376;9.708;2022-11-20T16:09:44;0.60;99.90
28438;DHT22;15667;52.376;9.708;2022-11-20T16:12:10;1.30;99.90
28438;DHT22;15667;52.376;9.708;2022-11-20T16:14:59;2.20;99.90
28438;DHT22;15667;52.376;9.708;2022-11-20T16:17:43;2.30;99.90
28438;DHT22;15667;52.376;9.708;2022-11-20T16:20:10;2.30;99.90
28438;DHT22;15667;52.376;9.708;2022-11-20T16:22:36;1.30;99.90
28438;DHT22;15667;52.376;9.708;2022-11-20T16:25:01;2.10;99.90
28438;DHT22;15667;52.376;9.708;2022-11-20T16:27:27;1.70;99.90
28438;DHT22;15667;52.376;9.708;2022-11-20T16:29:52;1.30;99.90
28438;DHT22;15667;52.376;9.708;2022-11-20T16:32:21;1.30;99.90
28438;DHT22;15667;52.376;9.708;2022-11-20T16:34:47;2.30;99.90
28438;DHT22;15667;52.376;9.708;2022-11-20T16:37:15;2.00;99.90
28438;DHT22;15667;52.376;9.708;2022-11-20T16:39:41;1.20;99.90
28438;DHT22;15667;52.376;9.708;2022-11-20T16:42:07;2.10;99.90
28438;DHT22;15667;52.376;9.708;2022-11-20T16:44:32;2.20;99.90
28438;DHT22;15667;52.376;9.708;2022-11-20T16:47:06;2.00;99.90
28438;DHT22;15667;52.376;9.708;2022-11-20T16:49:32;2.20;99.90
28438;DHT22;15667;52.376;9.708;2022-11-20T16:51:58;1.90;99.90
28438;DHT22;15667;52.376;9.708;2022-11-20T16:54:24;1.20;99.90
28438;DHT22;15667;52.376;9.708;2022-11-20T16:56:49;0.50;99.90
28438;DHT22;15667;52.376;9.708;2022-11-20T16:59:17;1.20;99.90
28438;DHT22;15667;52.376;9.708;2022-11-20T17:01:43;1.20;99.90
28438;DHT22;15667;52.376;9.708;2022-11-20T17:04:08;1.30;99.90
28438;DHT22;15667;52.376;9.708;2022-11-20T17:06:38;-0.10;99.90
28438;DHT22;15667;52.376;9.708;2022-11-20T17:09:05;1.90;99.90
28438;DHT22;15667;52.376;9.708;2022-11-20T17:11:33;1.70;99.90
28438;DHT22;15667;52.376;9.708;2022-11-20T17:13:59;2.20;99.90
28438;DHT22;15667;52.376;9.708;2022-11-20T17:16:26;1.80;99.90
28438;DHT22;15667;52.376;9.708;2022-11-20T17:18:53;1.60;99.90
28438;DHT22;15667;52.376;9.708;2022-11-20T17:21:21;1.80;99.90
28438;DHT22;15667;52.376;9.708;2022-11-20T17:23:50;2.10;99.90
28438;DHT22;15667;52.376;9.708;2022-11-20T17:26:17;1.00;99.90
28438;DHT22;15667;52.376;9.708;2022-11-20T17:28:44;2.20;99.90
28438;DHT22;15667;52.376;9.708;2022-11-20T17:31:14;1.00;99.90
28438;DHT22;15667;52.376;9.708;2022-11-20T17:33:41;1.00;99.90
28438;DHT22;15667;52.376;9.708;2022-11-20T17:36:07;0.90;99.90
28438;DHT22;15667;52.376;9.708;2022-11-20T17:38:34;0.90;99.90
28438;DHT22;15667;52.376;9.708;2022-11-20T17:41:03;0.90;99.90
28438;DHT22;15667;52.376;9.708;2022-11-20T17:43:29;0.90;99.90
28438;DHT22;15667;52.376;9.708;2022-11-20T17:45:55;0.80;99.90
28438;DHT22;15667;52.376;9.708;2022-11-20T17:48:21;0.80;99.90
28438;DHT22;15667;52.376;9.708;2022-11-20T17:50:46;0.80;99.90
28438;DHT22;15667;52.376;9.708;2022-11-20T17:53:12;0.80;99.90
28438;DHT22;15667;52.376;9.708;2022-11-20T17:55:37;0.70;99.90
28438;DHT22;15667;52.376;9.708;2022-11-20T17:58:21;0.80;99.90
28438;DHT22;15667;52.376;9.708;2022-11-20T18:00:47;0.80;99.90
28438;DHT22;15667;52.376;9.708;2022-11-20T18:03:12;0.80;99.90
28438;DHT22;15667;52.376;9.708;2022-11-20T18:05:38;1.60;99.90
28438;DHT22;15667;52.376;9.708;2022-11-20T18:08:03;0.80;99.90
28438;DHT22;15667;52.376;9.708;2022-11-20T18:10:29;0.80;99.90
28438;DHT22;15667;52.376;9.708;2022-11-20T18:12:55;0.80;99.90
28438;DHT22;15667;52.376;9.708;2022-11-20T18:15:20;0.80;99.90
28438;DHT22;15667;52.376;9.708;2022-11-20T18:17:46;0.80;99.90
28438;DHT22;15667;52.376;9.708;2022-11-20T18:20:12;1.50;99.90
28438;DHT22;15667;52.376;9.708;2022-11-20T18:22:37;1.60;99.90
28438;DHT22;15667;52.376;9.708;2022-11-20T18:25:03;1.40;99.90
28438;DHT22;15667;52.376;9.708;2022-11-20T19:30:06;0.90;99.90
28438;DHT22;15667;52.376;9.708;2022-11-20T19:32:57;0.90;99.90
28438;DHT22;15667;52.376;9.708;2022-11-20T20:42:10;0.10;99.90
28438;DHT22;15667;52.376;9.708;2022-11-20T20:44:36;0.90;99.90
28438;DHT22;15667;52.376;9.708;2022-11-20T20:47:20;1.00;99.90
28438;DHT22;15667;52.376;9.708;2022-11-20T20:49:48;1.10;99.90